sensor_id;sensor_type;location;lat;lon;timestamp;P1;durP1;ratioP1;P2;durP2;ratioP2
20020;SDS011;10171;42.694;23.318;2023-07-29T00:01:33;3.75;;;2.88;;
20020;SDS011;10171;42.694;23.318;2023-07-29T00:03:59;4.18;;;3.00;;
20020;SDS011;10171;42.694;23.318;2023-07-29T00:06:24;4.07;;;3.13;;
20020;SDS011;10171;42.694;23.318;2023-07-29T00:08:49;5.35;;;3.25;;
20020;SDS011;10171;42.694;23.318;2023-07-29T00:11:15;3.97;;;3.00;;
20020;SDS011;10171;42.694;23.318;2023-07-29T00:13:40;3.70;;;2.75;;
20020;SDS011;10171;42.694;23.318;2023-07-29T00:16:05;3.38;;;3.00;;
20020;SDS011;10171;42.694;23.318;2023-07-29T00:18:31;4.40;;;2.75;;
20020;SDS011;10171;42.694;23.318;2023-07-29T00:20:57;4.82;;;3.03;;
20020;SDS011;10171;42.694;23.318;2023-07-29T00:23:22;4.57;;;3.00;;
20020;SDS011;10171;42.694;23.318;2023-07-29T00:25:48;3.22;;;2.92;;
20020;SDS011;10171;42.694;23.318;2023-07-29T00:28:13;4.38;;;3.25;;
20020;SDS011;10171;42.694;23.318;2023-07-29T00:30:38;4.38;;;3.25;;
20020;SDS011;10171;42.694;23.318;2023-07-29T00:33:03;4.65;;;3.28;;
20020;SDS011;10171;42.694;23.318;2023-07-29T00:35:29;3.65;;;3.08;;
20020;SDS011;10171;42.694;23.318;2023-07-29T00:37:54;4.75;;;3.28;;
20020;SDS011;10171;42.694;23.318;2023-07-29T00:40:20;4.38;;;3.53;;
20020;SDS011;10171;42.694;23.318;2023-07-29T00:42:45;6.80;;;3.65;;
20020;SDS011;10171;42.694;23.318;2023-07-29T00:45:10;4.20;;;3.17;;
20020;SDS011;10171;42.694;23.318;2023-07-29T00:47:36;3.70;;;3.20;;
20020;SDS011;10171;42.694;23.318;2023-07-29T00:50:02;5.03;;;3.67;;
20020;SDS011;10171;42.694;23.318;2023-07-29T00:52:27;3.30;;;2.60;;
20020;SDS011;10171;42.694;23.318;2023-07-29T00:54:52;5.38;;;2.95;;
20020;SDS011;10171;42.694;23.318;2023-07-29T00:57:18;3.38;;;3.00;;
20020;SDS011;10171;42.694;23.318;2023-07-29T00:59:44;5.25;;;3.35;;
20020;SDS011;10171;42.694;23.318;2023-07-29T01:02:09;3.60;;;3.00;;
20020;SDS011;10171;42.694;23.318;2023-07-29T01:04:35;3.40;;;3.00;;
20020;SDS011;10171;42.694;23.318;2023-07-29T01:07:06;6.07;;;2.75;;
20020;SDS011;10171;42.694;23.318;2023-07-29T01:09:45;3.67;;;3.10;;
20020;SDS011;10171;42.694;23.318;2023-07-29T01:12:14;3.53;;;2.85;;
20020;SDS011;10171;42.694;23.318;2023-07-29T01:17:40;5.30;;;3.50;;
20020;SDS011;10171;42.694;23.318;2023-07-29T01:20:07;3.88;;;3.10;;
20020;SDS011;10171;42.694;23.318;2023-07-29T01:22:34;4.70;;;2.80;;
20020;SDS011;10171;42.694;23.318;2023-07-29T01:24:59;4.22;;;2.90;;
20020;SDS011;10171;42.694;23.318;2023-07-29T01:27:24;2.88;;;2.53;;
20020;SDS011;10171;42.694;23.318;2023-07-29T01:29:50;4.88;;;3.58;;
20020;SDS011;10171;42.694;23.318;2023-07-29T01:32:26;5.45;;;3.42;;
20020;SDS011;10171;42.694;23.318;2023-07-29T01:34:58;4.55;;;3.30;;
20020;SDS011;10171;42.694;23.318;2023-07-29T01:37:25;4.05;;;3.08;;
20020;SDS011;10171;42.694;23.318;2023-07-29T01:39:51;5.20;;;3.58;;
20020;SDS011;10171;42.694;23.318;2023-07-29T01:42:17;4.38;;;3.50;;
20020;SDS011;10171;42.694;23.318;2023-07-29T01:44:43;6.20;;;3.38;;
20020;SDS011;10171;42.694;23.318;2023-07-29T01:47:08;3.83;;;3.42;;
20020;SDS011;10171;42.694;23.318;2023-07-29T01:49:33;5.55;;;3.65;;
20020;SDS011;10171;42.694;23.318;2023-07-29T01:51:59;6.05;;;3.15;;
20020;SDS011;10171;42.694;23.318;2023-07-29T01:54:24;4.85;;;3.55;;
20020;SDS011;10171;42.694;23.318;2023-07-29T01:56:49;5.00;;;3.75;;
20020;SDS011;10171;42.694;23.318;2023-07-29T01:59:16;5.38;;;3.70;;
20020;SDS011;10171;42.694;23.318;2023-07-29T02:01:41;5.70;;;4.03;;
20020;SDS011;10171;42.694;23.318;2023-07-29T02:04:07;4.45;;;3.67;;
20020;SDS011;10171;42.694;23.318;2023-07-29T02:06:33;3.85;;;3.10;;
20020;SDS011;10171;42.694;23.318;2023-07-29T02:08:58;6.72;;;3.50;;
20020;SDS011;10171;42.694;23.318;2023-07-29T02:11:23;4.93;;;3.70;;
20020;SDS011;10171;42.694;23.318;2023-07-29T02:13:52;3.78;;;3.47;;
20020;SDS011;10171;42.694;23.318;2023-07-29T02:16:18;3.85;;;3.30;;
20020;SDS011;10171;42.694;23.318;2023-07-29T02:18:43;3.60;;;3.30;;
20020;SDS011;10171;42.694;23.318;2023-07-29T02:21:08;3.97;;;3.58;;
20020;SDS011;10171;42.694;23.318;2023-07-29T02:23:33;4.90;;;3.65;;
20020;SDS011;10171;42.694;23.318;2023-07-29T02:25:59;3.42;;;2.95;;
20020;SDS011;10171;42.694;23.318;2023-07-29T02:28:24;4.82;;;4.10;;
20020;SDS011;10171;42.694;23.318;2023-07-29T02:30:54;4.88;;;3.67;;
20020;SDS011;10171;42.694;23.318;2023-07-29T02:33:33;4.00;;;3.60;;
20020;SDS011;10171;42.694;23.318;2023-07-29T02:35:58;6.30;;;3.63;;
20020;SDS011;10171;42.694;23.318;2023-07-29T02:38:24;6.07;;;3.63;;
20020;SDS011;10171;42.694;23.318;2023-07-29T02:40:49;4.30;;;3.90;;
20020;SDS011;10171;42.694;23.318;2023-07-29T02:43:14;3.88;;;3.38;;
20020;SDS011;10171;42.694;23.318;2023-07-29T02:45:39;6.07;;;3.78;;
20020;SDS011;10171;42.694;23.318;2023-07-29T02:48:05;4.63;;;3.78;;
20020;SDS011;10171;42.694;23.318;2023-07-29T02:50:30;3.85;;;2.90;;
20020;SDS011;10171;42.694;23.318;2023-07-29T02:52:55;4.38;;;3.85;;
20020;SDS011;10171;42.694;23.318;2023-07-29T02:55:20;5.07;;;3.45;;
20020;SDS011;10171;42.694;23.318;2023-07-29T02:57:46;4.82;;;3.40;;
20020;SDS011;10171;42.694;23.318;2023-07-29T03:00:11;4.35;;;3.58;;
20020;SDS011;10171;42.694;23.318;2023-07-29T03:02:37;4.75;;;3.75;;
20020;SDS011;10171;42.694;23.318;2023-07-29T03:05:02;3.58;;;3.28;;
20020;SDS011;10171;42.694;23.318;2023-07-29T03:07:28;5.22;;;3.08;;
20020;SDS011;10171;42.694;23.318;2023-07-29T03:09:53;5.38;;;3.50;;
20020;SDS011;10171;42.694;23.318;2023-07-29T03:12:19;4.28;;;3.47;;
20020;SDS011;10171;42.694;23.318;2023-07-29T03:14:47;3.92;;;3.47;;
20020;SDS011;10171;42.694;23.318;2023-07-29T03:17:12;4.03;;;3.63;;
20020;SDS011;10171;42.694;23.318;2023-07-29T03:19:37;4.43;;;4.03;;
20020;SDS011;10171;42.694;23.318;2023-07-29T03:22:03;6.43;;;4.50;;
20020;SDS011;10171;42.694;23.318;2023-07-29T03:24:28;5.43;;;4.13;;
20020;SDS011;10171;42.694;23.318;2023-07-29T03:26:54;5.50;;;3.90;;
20020;SDS011;10171;42.694;23.318;2023-07-29T03:29:19;5.45;;;4.30;;
20020;SDS011;10171;42.694;23.318;2023-07-29T03:31:44;4.32;;;3.92;;
20020;SDS011;10171;42.694;23.318;2023-07-29T03:34:09;5.03;;;3.90;;
20020;SDS011;10171;42.694;23.318;2023-07-29T03:36:36;5.85;;;3.95;;
20020;SDS011;10171;42.694;23.318;2023-07-29T03:39:01;5.45;;;3.50;;
20020;SDS011;10171;42.694;23.318;2023-07-29T03:41:28;4.20;;;3.60;;
20020;SDS011;10171;42.694;23.318;2023-07-29T03:43:54;3.58;;;3.10;;
20020;SDS011;10171;42.694;23.318;2023-07-29T03:46:19;5.10;;;3.70;;
20020;SDS011;10171;42.694;23.318;2023-07-29T03:48:46;6.15;;;3.90;;
20020;SDS011;10171;42.694;23.318;2023-07-29T03:51:12;4.78;;;3.60;;
20020;SDS011;10171;42.694;23.318;2023-07-29T03:53:37;6.93;;;3.78;;
20020;SDS011;10171;42.694;23.318;2023-07-29T03:56:02;6.03;;;3.78;;
20020;SDS011;10171;42.694;23.318;2023-07-29T03:58:27;5.32;;;4.00;;
20020;SDS011;10171;42.694;23.318;2023-07-29T04:00:53;4.72;;;3.85;;
20020;SDS011;10171;42.694;23.318;2023-07-29T04:03:18;6.95;;;3.80;;
20020;SDS011;10171;42.694;23.318;2023-07-29T04:05:43;4.93;;;3.90;;
20020;SDS011;10171;42.694;23.318;2023-07-29T04:08:09;4.40;;;3.83;;
20020;SDS011;10171;42.694;23.318;2023-07-29T04:10:34;6.13;;;4.35;;
20020;SDS011;10171;42.694;23.318;2023-07-29T04:13:00;5.40;;;4.20;;
20020;SDS011;10171;42.694;23.318;2023-07-29T04:15:25;7.15;;;4.82;;
20020;SDS011;10171;42.694;23.318;2023-07-29T04:17:50;6.00;;;4.97;;
20020;SDS011;10171;42.694;23.318;2023-07-29T04:20:16;7.63;;;3.88;;
20020;SDS011;10171;42.694;23.318;2023-07-29T04:22:41;10.43;;;4.90;;
20020;SDS011;10171;42.694;23.318;2023-07-29T04:25:06;5.30;;;4.28;;
20020;SDS011;10171;42.694;23.318;2023-07-29T04:27:32;5.32;;;4.00;;
20020;SDS011;10171;42.694;23.318;2023-07-29T04:29:57;8.13;;;4.85;;
20020;SDS011;10171;42.694;23.318;2023-07-29T04:32:22;6.78;;;4.80;;
20020;SDS011;10171;42.694;23.318;2023-07-29T04:34:47;7.72;;;5.65;;
20020;SDS011;10171;42.694;23.318;2023-07-29T04:37:13;7.50;;;5.25;;
20020;SDS011;10171;42.694;23.318;2023-07-29T04:39:38;6.13;;;4.47;;
20020;SDS011;10171;42.694;23.318;2023-07-29T04:42:03;7.45;;;4.72;;
20020;SDS011;10171;42.694;23.318;2023-07-29T04:44:29;8.23;;;4.60;;
20020;SDS011;10171;42.694;23.318;2023-07-29T04:46:54;5.05;;;4.55;;
20020;SDS011;10171;42.694;23.318;2023-07-29T04:49:19;6.50;;;4.70;;
20020;SDS011;10171;42.694;23.318;2023-07-29T04:51:44;5.10;;;4.40;;
20020;SDS011;10171;42.694;23.318;2023-07-29T04:54:10;5.60;;;4.03;;
20020;SDS011;10171;42.694;23.318;2023-07-29T04:56:35;6.55;;;4.53;;
20020;SDS011;10171;42.694;23.318;2023-07-29T04:59:01;5.80;;;4.72;;
20020;SDS011;10171;42.694;23.318;2023-07-29T05:01:26;5.50;;;4.57;;
20020;SDS011;10171;42.694;23.318;2023-07-29T05:03:51;5.22;;;4.38;;
20020;SDS011;10171;42.694;23.318;2023-07-29T05:06:17;6.32;;;4.20;;
20020;SDS011;10171;42.694;23.318;2023-07-29T05:08:42;5.78;;;4.05;;
20020;SDS011;10171;42.694;23.318;2023-07-29T05:11:07;6.05;;;4.32;;
20020;SDS011;10171;42.694;23.318;2023-07-29T05:13:32;6.07;;;4.18;;
20020;SDS011;10171;42.694;23.318;2023-07-29T05:15:58;6.53;;;4.05;;
20020;SDS011;10171;42.694;23.318;2023-07-29T05:18:23;5.18;;;4.32;;
20020;SDS011;10171;42.694;23.318;2023-07-29T05:20:48;4.90;;;4.13;;
20020;SDS011;10171;42.694;23.318;2023-07-29T05:23:13;5.80;;;3.92;;
20020;SDS011;10171;42.694;23.318;2023-07-29T05:25:39;8.40;;;4.22;;
20020;SDS011;10171;42.694;23.318;2023-07-29T05:28:04;4.75;;;3.78;;
20020;SDS011;10171;42.694;23.318;2023-07-29T05:30:30;6.47;;;3.78;;
20020;SDS011;10171;42.694;23.318;2023-07-29T05:33:02;7.72;;;4.32;;
20020;SDS011;10171;42.694;23.318;2023-07-29T05:35:27;4.82;;;4.20;;
20020;SDS011;10171;42.694;23.318;2023-07-29T05:37:52;6.13;;;4.47;;
20020;SDS011;10171;42.694;23.318;2023-07-29T05:40:18;7.03;;;4.03;;
20020;SDS011;10171;42.694;23.318;2023-07-29T05:42:43;4.47;;;4.05;;
20020;SDS011;10171;42.694;23.318;2023-07-29T05:45:10;5.03;;;4.13;;
20020;SDS011;10171;42.694;23.318;2023-07-29T05:47:35;5.45;;;4.15;;
20020;SDS011;10171;42.694;23.318;2023-07-29T05:50:01;6.93;;;4.15;;
20020;SDS011;10171;42.694;23.318;2023-07-29T05:52:29;5.70;;;4.43;;
20020;SDS011;10171;42.694;23.318;2023-07-29T05:54:54;4.82;;;4.30;;
20020;SDS011;10171;42.694;23.318;2023-07-29T05:57:20;6.18;;;4.53;;
20020;SDS011;10171;42.694;23.318;2023-07-29T05:59:45;5.85;;;3.88;;
20020;SDS011;10171;42.694;23.318;2023-07-29T06:02:11;5.97;;;4.22;;
20020;SDS011;10171;42.694;23.318;2023-07-29T06:04:36;5.80;;;4.22;;
20020;SDS011;10171;42.694;23.318;2023-07-29T06:07:02;5.85;;;4.43;;
20020;SDS011;10171;42.694;23.318;2023-07-29T06:09:27;5.82;;;4.13;;
20020;SDS011;10171;42.694;23.318;2023-07-29T06:11:52;8.40;;;4.18;;
20020;SDS011;10171;42.694;23.318;2023-07-29T06:14:18;5.78;;;4.43;;
20020;SDS011;10171;42.694;23.318;2023-07-29T06:16:43;4.80;;;4.30;;
20020;SDS011;10171;42.694;23.318;2023-07-29T06:19:08;6.20;;;4.63;;
20020;SDS011;10171;42.694;23.318;2023-07-29T06:21:34;6.05;;;4.68;;
20020;SDS011;10171;42.694;23.318;2023-07-29T06:24:00;7.63;;;4.43;;
20020;SDS011;10171;42.694;23.318;2023-07-29T06:26:25;5.13;;;4.38;;
20020;SDS011;10171;42.694;23.318;2023-07-29T06:28:50;7.70;;;4.35;;
20020;SDS011;10171;42.694;23.318;2023-07-29T06:31:15;4.88;;;4.13;;
20020;SDS011;10171;42.694;23.318;2023-07-29T06:33:41;5.00;;;4.22;;
20020;SDS011;10171;42.694;23.318;2023-07-29T06:36:06;5.47;;;4.13;;
20020;SDS011;10171;42.694;23.318;2023-07-29T06:38:31;4.45;;;4.05;;
20020;SDS011;10171;42.694;23.318;2023-07-29T06:40:57;6.78;;;4.55;;
20020;SDS011;10171;42.694;23.318;2023-07-29T06:43:22;8.18;;;5.22;;
20020;SDS011;10171;42.694;23.318;2023-07-29T06:45:47;4.80;;;4.07;;
20020;SDS011;10171;42.694;23.318;2023-07-29T06:48:13;6.78;;;4.10;;
20020;SDS011;10171;42.694;23.318;2023-07-29T06:50:38;5.60;;;3.80;;
20020;SDS011;10171;42.694;23.318;2023-07-29T06:53:03;5.68;;;4.13;;
20020;SDS011;10171;42.694;23.318;2023-07-29T06:55:29;4.70;;;3.70;;
20020;SDS011;10171;42.694;23.318;2023-07-29T06:57:54;5.30;;;4.25;;
20020;SDS011;10171;42.694;23.318;2023-07-29T07:00:19;7.53;;;4.45;;
20020;SDS011;10171;42.694;23.318;2023-07-29T07:02:44;5.32;;;4.45;;
20020;SDS011;10171;42.694;23.318;2023-07-29T07:05:10;4.85;;;4.35;;
20020;SDS011;10171;42.694;23.318;2023-07-29T07:07:35;6.35;;;5.03;;
20020;SDS011;10171;42.694;23.318;2023-07-29T07:10:01;9.13;;;5.55;;
20020;SDS011;10171;42.694;23.318;2023-07-29T07:12:26;4.90;;;4.40;;
20020;SDS011;10171;42.694;23.318;2023-07-29T07:14:52;6.82;;;4.63;;
20020;SDS011;10171;42.694;23.318;2023-07-29T07:17:17;7.18;;;4.88;;
20020;SDS011;10171;42.694;23.318;2023-07-29T07:19:43;8.77;;;5.22;;
20020;SDS011;10171;42.694;23.318;2023-07-29T07:22:08;7.13;;;5.32;;
20020;SDS011;10171;42.694;23.318;2023-07-29T07:24:33;9.85;;;6.05;;
20020;SDS011;10171;42.694;23.318;2023-07-29T07:26:59;7.35;;;5.32;;
20020;SDS011;10171;42.694;23.318;2023-07-29T07:29:24;8.43;;;4.90;;
20020;SDS011;10171;42.694;23.318;2023-07-29T07:31:53;10.55;;;6.30;;
20020;SDS011;10171;42.694;23.318;2023-07-29T07:34:19;7.95;;;4.43;;
20020;SDS011;10171;42.694;23.318;2023-07-29T07:36:44;6.93;;;5.13;;
20020;SDS011;10171;42.694;23.318;2023-07-29T07:39:10;10.45;;;5.80;;
20020;SDS011;10171;42.694;23.318;2023-07-29T07:41:35;7.63;;;6.07;;
20020;SDS011;10171;42.694;23.318;2023-07-29T07:44:00;6.25;;;4.05;;
20020;SDS011;10171;42.694;23.318;2023-07-29T07:46:25;6.68;;;5.43;;
20020;SDS011;10171;42.694;23.318;2023-07-29T07:48:51;10.20;;;4.53;;
20020;SDS011;10171;42.694;23.318;2023-07-29T07:51:16;5.22;;;4.72;;
20020;SDS011;10171;42.694;23.318;2023-07-29T07:53:41;9.98;;;5.20;;
20020;SDS011;10171;42.694;23.318;2023-07-29T07:56:07;9.00;;;4.32;;
20020;SDS011;10171;42.694;23.318;2023-07-29T07:58:32;5.95;;;5.05;;
20020;SDS011;10171;42.694;23.318;2023-07-29T08:01:04;5.82;;;4.60;;
20020;SDS011;10171;42.694;23.318;2023-07-29T08:03:30;5.40;;;4.10;;
20020;SDS011;10171;42.694;23.318;2023-07-29T08:05:55;6.63;;;3.70;;
20020;SDS011;10171;42.694;23.318;2023-07-29T08:08:20;5.72;;;3.90;;
20020;SDS011;10171;42.694;23.318;2023-07-29T08:10:46;7.40;;;4.07;;
20020;SDS011;10171;42.694;23.318;2023-07-29T08:13:11;8.98;;;4.43;;
20020;SDS011;10171;42.694;23.318;2023-07-29T08:15:36;8.50;;;4.22;;
20020;SDS011;10171;42.694;23.318;2023-07-29T08:18:01;7.10;;;3.95;;
20020;SDS011;10171;42.694;23.318;2023-07-29T08:20:27;6.00;;;4.55;;
20020;SDS011;10171;42.694;23.318;2023-07-29T08:22:52;8.27;;;4.63;;
20020;SDS011;10171;42.694;23.318;2023-07-29T08:25:18;7.30;;;4.75;;
20020;SDS011;10171;42.694;23.318;2023-07-29T08:27:43;7.97;;;4.50;;
20020;SDS011;10171;42.694;23.318;2023-07-29T08:30:08;4.60;;;4.05;;
20020;SDS011;10171;42.694;23.318;2023-07-29T08:32:34;5.20;;;4.50;;
20020;SDS011;10171;42.694;23.318;2023-07-29T08:34:59;6.80;;;4.78;;
20020;SDS011;10171;42.694;23.318;2023-07-29T08:37:24;6.85;;;4.55;;
20020;SDS011;10171;42.694;23.318;2023-07-29T08:39:50;9.35;;;4.57;;
20020;SDS011;10171;42.694;23.318;2023-07-29T08:42:15;6.65;;;4.38;;
20020;SDS011;10171;42.694;23.318;2023-07-29T08:44:43;5.80;;;4.55;;
20020;SDS011;10171;42.694;23.318;2023-07-29T08:47:10;6.07;;;4.25;;
20020;SDS011;10171;42.694;23.318;2023-07-29T08:49:36;5.72;;;4.20;;
20020;SDS011;10171;42.694;23.318;2023-07-29T08:52:02;5.95;;;4.05;;
20020;SDS011;10171;42.694;23.318;2023-07-29T08:54:28;4.72;;;4.03;;
20020;SDS011;10171;42.694;23.318;2023-07-29T08:56:53;5.57;;;4.22;;
20020;SDS011;10171;42.694;23.318;2023-07-29T08:59:19;7.38;;;4.18;;
20020;SDS011;10171;42.694;23.318;2023-07-29T09:01:44;8.88;;;4.40;;
20020;SDS011;10171;42.694;23.318;2023-07-29T09:04:10;4.63;;;3.55;;
20020;SDS011;10171;42.694;23.318;2023-07-29T09:06:35;6.40;;;3.13;;
20020;SDS011;10171;42.694;23.318;2023-07-29T09:09:03;4.78;;;3.13;;
20020;SDS011;10171;42.694;23.318;2023-07-29T09:11:28;3.75;;;2.80;;
20020;SDS011;10171;42.694;23.318;2023-07-29T09:13:53;3.60;;;3.30;;
20020;SDS011;10171;42.694;23.318;2023-07-29T09:16:22;2.90;;;2.55;;
20020;SDS011;10171;42.694;23.318;2023-07-29T09:18:47;5.00;;;2.85;;
20020;SDS011;10171;42.694;23.318;2023-07-29T09:21:15;4.38;;;2.67;;
20020;SDS011;10171;42.694;23.318;2023-07-29T09:23:41;2.75;;;2.42;;
20020;SDS011;10171;42.694;23.318;2023-07-29T09:26:07;1.95;;;1.75;;
20020;SDS011;10171;42.694;23.318;2023-07-29T09:28:39;2.97;;;1.85;;
20020;SDS011;10171;42.694;23.318;2023-07-29T09:31:04;2.72;;;2.08;;
20020;SDS011;10171;42.694;23.318;2023-07-29T09:33:32;2.88;;;2.10;;
20020;SDS011;10171;42.694;23.318;2023-07-29T09:35:59;3.00;;;2.20;;
20020;SDS011;10171;42.694;23.318;2023-07-29T09:38:28;3.20;;;2.70;;
20020;SDS011;10171;42.694;23.318;2023-07-29T09:40:57;3.00;;;2.65;;
20020;SDS011;10171;42.694;23.318;2023-07-29T09:43:33;2.47;;;2.28;;
20020;SDS011;10171;42.694;23.318;2023-07-29T09:46:02;2.25;;;2.05;;
20020;SDS011;10171;42.694;23.318;2023-07-29T09:48:27;4.75;;;2.63;;
20020;SDS011;10171;42.694;23.318;2023-07-29T09:50:56;2.40;;;2.20;;
20020;SDS011;10171;42.694;23.318;2023-07-29T09:53:21;2.53;;;1.73;;
20020;SDS011;10171;42.694;23.318;2023-07-29T09:55:47;2.30;;;2.10;;
20020;SDS011;10171;42.694;23.318;2023-07-29T09:58:19;2.38;;;2.17;;
20020;SDS011;10171;42.694;23.318;2023-07-29T10:00:50;2.53;;;2.13;;
20020;SDS011;10171;42.694;23.318;2023-07-29T10:03:16;1.90;;;1.80;;
20020;SDS011;10171;42.694;23.318;2023-07-29T10:05:42;2.28;;;2.05;;
20020;SDS011;10171;42.694;23.318;2023-07-29T10:08:07;2.80;;;1.80;;
20020;SDS011;10171;42.694;23.318;2023-07-29T10:10:34;3.47;;;1.83;;
20020;SDS011;10171;42.694;23.318;2023-07-29T10:12:59;2.38;;;1.50;;
20020;SDS011;10171;42.694;23.318;2023-07-29T10:15:26;1.92;;;1.42;;
20020;SDS011;10171;42.694;23.318;2023-07-29T10:17:52;1.65;;;1.55;;
20020;SDS011;10171;42.694;23.318;2023-07-29T10:20:19;1.52;;;1.42;;
20020;SDS011;10171;42.694;23.318;2023-07-29T10:22:45;3.33;;;1.67;;
20020;SDS011;10171;42.694;23.318;2023-07-29T10:25:19;1.83;;;1.65;;
20020;SDS011;10171;42.694;23.318;2023-07-29T10:27:48;1.60;;;1.50;;
20020;SDS011;10171;42.694;23.318;2023-07-29T10:30:14;1.63;;;1.50;;
20020;SDS011;10171;42.694;23.318;2023-07-29T10:32:43;3.00;;;1.42;;
20020;SDS011;10171;42.694;23.318;2023-07-29T10:35:10;2.10;;;1.58;;
20020;SDS011;10171;42.694;23.318;2023-07-29T10:37:35;1.85;;;1.67;;
20020;SDS011;10171;42.694;23.318;2023-07-29T10:40:01;1.50;;;1.40;;
20020;SDS011;10171;42.694;23.318;2023-07-29T10:42:31;2.20;;;1.60;;
20020;SDS011;10171;42.694;23.318;2023-07-29T10:44:57;1.65;;;1.42;;
20020;SDS011;10171;42.694;23.318;2023-07-29T10:49:49;1.52;;;1.30;;
20020;SDS011;10171;42.694;23.318;2023-07-29T10:52:15;1.33;;;1.13;;
20020;SDS011;10171;42.694;23.318;2023-07-29T10:54:45;1.20;;;0.80;;
20020;SDS011;10171;42.694;23.318;2023-07-29T10:57:14;1.92;;;0.95;;
20020;SDS011;10171;42.694;23.318;2023-07-29T10:59:55;1.23;;;0.80;;
20020;SDS011;10171;42.694;23.318;2023-07-29T11:02:21;0.80;;;0.70;;
20020;SDS011;10171;42.694;23.318;2023-07-29T11:04:54;2.55;;;1.13;;
20020;SDS011;10171;42.694;23.318;2023-07-29T11:07:20;6.85;;;1.80;;
20020;SDS011;10171;42.694;23.318;2023-07-29T11:17:43;1.15;;;1.10;;
20020;SDS011;10171;42.694;23.318;2023-07-29T11:20:09;1.75;;;1.00;;
20020;SDS011;10171;42.694;23.318;2023-07-29T11:22:35;5.15;;;1.58;;
20020;SDS011;10171;42.694;23.318;2023-07-29T11:25:00;3.30;;;1.20;;
20020;SDS011;10171;42.694;23.318;2023-07-29T11:27:26;1.02;;;0.90;;
20020;SDS011;10171;42.694;23.318;2023-07-29T11:29:56;1.42;;;1.00;;
20020;SDS011;10171;42.694;23.318;2023-07-29T11:32:21;1.60;;;0.68;;
20020;SDS011;10171;42.694;23.318;2023-07-29T11:34:47;0.85;;;0.70;;
20020;SDS011;10171;42.694;23.318;2023-07-29T11:37:12;2.47;;;1.00;;
20020;SDS011;10171;42.694;23.318;2023-07-29T11:39:41;1.30;;;1.20;;
20020;SDS011;10171;42.694;23.318;2023-07-29T11:42:06;2.70;;;1.40;;
20020;SDS011;10171;42.694;23.318;2023-07-29T11:44:31;1.25;;;0.90;;
20020;SDS011;10171;42.694;23.318;2023-07-29T11:46:57;2.63;;;1.10;;
20020;SDS011;10171;42.694;23.318;2023-07-29T11:49:22;1.52;;;1.17;;
20020;SDS011;10171;42.694;23.318;2023-07-29T11:51:47;1.75;;;1.27;;
20020;SDS011;10171;42.694;23.318;2023-07-29T11:54:13;1.77;;;1.10;;
20020;SDS011;10171;42.694;23.318;2023-07-29T11:56:38;1.75;;;1.30;;
20020;SDS011;10171;42.694;23.318;2023-07-29T11:59:03;1.27;;;1.10;;
20020;SDS011;10171;42.694;23.318;2023-07-29T12:01:29;2.90;;;1.30;;
20020;SDS011;10171;42.694;23.318;2023-07-29T12:03:55;3.88;;;1.42;;
20020;SDS011;10171;42.694;23.318;2023-07-29T12:06:22;1.50;;;1.40;;
20020;SDS011;10171;42.694;23.318;2023-07-29T12:08:49;1.52;;;1.20;;
20020;SDS011;10171;42.694;23.318;2023-07-29T12:11:14;1.30;;;1.20;;
20020;SDS011;10171;42.694;23.318;2023-07-29T12:13:41;1.27;;;1.17;;
20020;SDS011;10171;42.694;23.318;2023-07-29T12:16:06;2.38;;;1.25;;
20020;SDS011;10171;42.694;23.318;2023-07-29T12:18:32;1.10;;;1.00;;
20020;SDS011;10171;42.694;23.318;2023-07-29T12:20:57;1.88;;;1.45;;
20020;SDS011;10171;42.694;23.318;2023-07-29T12:23:26;2.20;;;1.30;;
20020;SDS011;10171;42.694;23.318;2023-07-29T12:25:56;2.63;;;1.77;;
20020;SDS011;10171;42.694;23.318;2023-07-29T12:28:22;1.20;;;1.10;;
20020;SDS011;10171;42.694;23.318;2023-07-29T12:30:47;1.77;;;1.08;;
20020;SDS011;10171;42.694;23.318;2023-07-29T12:33:28;2.28;;;1.35;;
20020;SDS011;10171;42.694;23.318;2023-07-29T12:35:53;2.28;;;1.52;;
20020;SDS011;10171;42.694;23.318;2023-07-29T12:38:22;1.25;;;1.08;;
20020;SDS011;10171;42.694;23.318;2023-07-29T12:40:47;1.92;;;1.00;;
20020;SDS011;10171;42.694;23.318;2023-07-29T12:43:12;1.88;;;1.23;;
20020;SDS011;10171;42.694;23.318;2023-07-29T12:45:37;1.63;;;1.05;;
20020;SDS011;10171;42.694;23.318;2023-07-29T12:48:05;1.25;;;1.15;;
20020;SDS011;10171;42.694;23.318;2023-07-29T12:50:30;1.58;;;1.48;;
20020;SDS011;10171;42.694;23.318;2023-07-29T12:52:55;1.92;;;1.73;;
20020;SDS011;10171;42.694;23.318;2023-07-29T12:55:20;2.95;;;1.45;;
20020;SDS011;10171;42.694;23.318;2023-07-29T12:57:46;3.20;;;1.30;;
20020;SDS011;10171;42.694;23.318;2023-07-29T13:00:11;1.30;;;1.20;;
20020;SDS011;10171;42.694;23.318;2023-07-29T13:02:37;1.35;;;1.25;;
20020;SDS011;10171;42.694;23.318;2023-07-29T13:05:02;2.47;;;1.25;;
20020;SDS011;10171;42.694;23.318;2023-07-29T13:07:28;2.25;;;1.30;;
20020;SDS011;10171;42.694;23.318;2023-07-29T13:09:53;2.92;;;1.52;;
20020;SDS011;10171;42.694;23.318;2023-07-29T13:12:18;1.50;;;1.40;;
20020;SDS011;10171;42.694;23.318;2023-07-29T13:14:44;2.22;;;1.15;;
20020;SDS011;10171;42.694;23.318;2023-07-29T13:17:09;1.35;;;1.25;;
20020;SDS011;10171;42.694;23.318;2023-07-29T13:19:34;1.33;;;1.23;;
20020;SDS011;10171;42.694;23.318;2023-07-29T13:21:59;1.10;;;1.00;;
20020;SDS011;10171;42.694;23.318;2023-07-29T13:24:27;2.13;;;1.30;;
20020;SDS011;10171;42.694;23.318;2023-07-29T13:26:52;1.30;;;1.20;;
20020;SDS011;10171;42.694;23.318;2023-07-29T13:29:17;1.35;;;1.25;;
20020;SDS011;10171;42.694;23.318;2023-07-29T13:31:43;2.67;;;1.20;;
20020;SDS011;10171;42.694;23.318;2023-07-29T13:34:08;1.83;;;1.35;;
20020;SDS011;10171;42.694;23.318;2023-07-29T13:36:33;1.15;;;1.05;;
20020;SDS011;10171;42.694;23.318;2023-07-29T13:38:58;1.40;;;1.30;;
20020;SDS011;10171;42.694;23.318;2023-07-29T13:41:24;1.80;;;1.40;;
20020;SDS011;10171;42.694;23.318;2023-07-29T13:43:49;2.17;;;1.50;;
20020;SDS011;10171;42.694;23.318;2023-07-29T13:46:14;1.42;;;1.20;;
20020;SDS011;10171;42.694;23.318;2023-07-29T13:48:39;1.40;;;1.20;;
20020;SDS011;10171;42.694;23.318;2023-07-29T13:51:05;1.70;;;1.45;;
20020;SDS011;10171;42.694;23.318;2023-07-29T13:53:30;1.23;;;1.10;;
20020;SDS011;10171;42.694;23.318;2023-07-29T13:55:55;1.35;;;1.20;;
20020;SDS011;10171;42.694;23.318;2023-07-29T13:58:20;1.80;;;1.10;;
20020;SDS011;10171;42.694;23.318;2023-07-29T14:00:46;2.10;;;1.40;;
20020;SDS011;10171;42.694;23.318;2023-07-29T14:03:11;2.50;;;1.50;;
20020;SDS011;10171;42.694;23.318;2023-07-29T14:05:36;1.60;;;1.45;;
20020;SDS011;10171;42.694;23.318;2023-07-29T14:08:02;1.48;;;1.38;;
20020;SDS011;10171;42.694;23.318;2023-07-29T14:10:27;1.48;;;1.38;;
20020;SDS011;10171;42.694;23.318;2023-07-29T14:12:52;2.35;;;1.42;;
20020;SDS011;10171;42.694;23.318;2023-07-29T14:15:17;1.67;;;1.45;;
20020;SDS011;10171;42.694;23.318;2023-07-29T14:17:43;2.33;;;1.60;;
20020;SDS011;10171;42.694;23.318;2023-07-29T14:20:09;3.05;;;1.60;;
20020;SDS011;10171;42.694;23.318;2023-07-29T14:22:35;4.28;;;1.35;;
20020;SDS011;10171;42.694;23.318;2023-07-29T14:25:00;2.88;;;1.60;;
20020;SDS011;10171;42.694;23.318;2023-07-29T14:27:26;1.33;;;1.23;;
20020;SDS011;10171;42.694;23.318;2023-07-29T14:29:51;2.63;;;2.28;;
20020;SDS011;10171;42.694;23.318;2023-07-29T14:32:16;3.03;;;2.13;;
20020;SDS011;10171;42.694;23.318;2023-07-29T14:34:41;2.10;;;1.90;;
20020;SDS011;10171;42.694;23.318;2023-07-29T14:37:07;2.25;;;1.67;;
20020;SDS011;10171;42.694;23.318;2023-07-29T14:39:32;1.70;;;1.60;;